createdAt,value
2022-12-18T00:00:34.196Z,74.92
2022-12-18T00:03:57.592Z,74.88
2022-12-18T00:07:00.770Z,74.85
2022-12-18T00:10:04.907Z,74.80
2022-12-18T00:13:10.085Z,74.77
2022-12-18T00:16:19.499Z,74.76
2022-12-18T00:19:22.588Z,74.76
2022-12-18T00:22:25.656Z,74.76
2022-12-18T00:25:28.701Z,74.78
2022-12-18T00:28:32.028Z,74.76
2022-12-18T00:31:35.629Z,74.79
2022-12-18T00:34:38.830Z,74.81
2022-12-18T00:37:41.826Z,74.80
2022-12-18T00:40:46.849Z,74.81
2022-12-18T00:43:49.866Z,74.84
2022-12-18T00:46:52.941Z,74.82
2022-12-18T00:49:56.056Z,74.80
2022-12-18T00:52:59.095Z,74.79
2022-12-18T00:56:02.133Z,74.79
2022-12-18T00:59:05.810Z,74.76
2022-12-18T01:02:08.885Z,74.74
2022-12-18T01:05:14.137Z,74.73
2022-12-18T01:08:17.209Z,74.73
2022-12-18T01:11:21.659Z,74.71
2022-12-18T01:14:24.859Z,74.74
2022-12-18T01:17:29.703Z,74.73
2022-12-18T01:20:33.191Z,74.73
2022-12-18T01:23:36.709Z,74.73
2022-12-18T01:26:39.949Z,74.70
2022-12-18T01:29:43.533Z,74.69
2022-12-18T01:32:46.559Z,74.68
2022-12-18T01:35:49.594Z,74.68
2022-12-18T01:38:53.462Z,74.69
2022-12-18T01:42:05.524Z,74.69
2022-12-18T01:45:14.732Z,74.67
2022-12-18T01:48:19.498Z,74.69
2022-12-18T01:51:22.814Z,74.71
2022-12-18T01:54:28.612Z,74.71
2022-12-18T01:59:19.998Z,74.69
2022-12-18T02:02:23.416Z,74.69
2022-12-18T02:05:36.202Z,74.70
2022-12-18T02:08:48.563Z,74.69
2022-12-18T02:12:19.266Z,74.66
2022-12-18T02:15:37.147Z,74.68
2022-12-18T02:18:46.311Z,74.68
2022-12-18T02:22:07.933Z,74.67
2022-12-18T02:25:14.102Z,74.70
2022-12-18T02:28:19.641Z,74.67
2022-12-18T02:31:28.805Z,74.67
2022-12-18T02:34:37.062Z,74.70
2022-12-18T02:37:43.016Z,74.69
2022-12-18T02:40:47.351Z,74.69
2022-12-18T02:43:59.927Z,74.68
2022-12-18T02:47:04.350Z,74.67
2022-12-18T02:50:23.653Z,74.67
2022-12-18T02:53:52.514Z,74.69
2022-12-18T02:56:59.220Z,74.69
2022-12-18T03:00:07.396Z,74.67
2022-12-18T03:03:22.634Z,74.68
2022-12-18T03:06:40.752Z,74.66
2022-12-18T03:09:48.789Z,74.67
2022-12-18T03:13:09.079Z,74.64
2022-12-18T03:16:20.302Z,74.65
2022-12-18T03:19:27.799Z,74.62
2022-12-18T03:22:35.494Z,74.62
2022-12-18T03:25:45.159Z,74.61
2022-12-18T03:28:55.396Z,74.59
2022-12-18T03:32:09.548Z,74.60
2022-12-18T03:35:22.376Z,74.60
2022-12-18T03:38:25.896Z,74.61
2022-12-18T03:41:46.005Z,74.59
2022-12-18T03:45:19.827Z,74.61
2022-12-18T03:48:40.252Z,74.60
2022-12-18T03:51:51.346Z,74.60
2022-12-18T03:54:57.703Z,74.60
2022-12-18T03:58:04.583Z,74.56
2022-12-18T04:01:17.933Z,74.56
2022-12-18T04:04:22.662Z,74.55
2022-12-18T04:07:26.333Z,74.53
2022-12-18T04:10:30.150Z,74.54
2022-12-18T04:13:37.561Z,74.54
2022-12-18T04:16:43.868Z,74.50
2022-12-18T04:19:48.881Z,74.49
2022-12-18T04:22:52.580Z,74.47
2022-12-18T04:25:56.224Z,74.51
2022-12-18T04:29:12.729Z,74.48
2022-12-18T04:32:16.031Z,74.46
2022-12-18T04:35:19.739Z,74.43
2022-12-18T04:38:23.645Z,74.44
2022-12-18T04:41:30.691Z,74.48
2022-12-18T04:44:34.485Z,74.46
2022-12-18T04:47:37.604Z,74.47
2022-12-18T04:50:40.616Z,74.47
2022-12-18T04:53:44.177Z,74.44
2022-12-18T04:56:47.257Z,74.41
2022-12-18T04:59:50.530Z,74.38
2022-12-18T05:02:53.616Z,74.36
2022-12-18T05:05:56.792Z,74.30
2022-12-18T05:08:59.863Z,74.27
2022-12-18T05:12:02.876Z,74.27
2022-12-18T05:15:06.556Z,74.26
2022-12-18T05:18:09.800Z,74.28
2022-12-18T05:21:12.862Z,74.28
2022-12-18T05:24:15.973Z,74.27
2022-12-18T05:27:21.614Z,74.25
2022-12-18T05:30:24.719Z,74.23
2022-12-18T05:33:30.867Z,74.21
2022-12-18T05:36:33.912Z,74.17
2022-12-18T05:39:36.967Z,74.16
2022-12-18T05:42:39.987Z,74.13
2022-12-18T05:45:43.353Z,74.13
2022-12-18T05:48:46.540Z,74.13
2022-12-18T05:51:49.571Z,74.13
2022-12-18T05:54:52.620Z,74.15
2022-12-18T05:57:55.711Z,74.13
2022-12-18T06:01:06.579Z,74.12
2022-12-18T06:04:09.663Z,74.10
2022-12-18T06:07:12.833Z,74.08
2022-12-18T06:10:18.508Z,74.07
2022-12-18T06:13:22.075Z,74.07
2022-12-18T06:16:25.344Z,74.06
2022-12-18T06:19:28.548Z,74.01
2022-12-18T06:22:33.197Z,73.99
2022-12-18T06:25:39.713Z,73.95
2022-12-18T06:28:43.090Z,73.93
2022-12-18T06:31:46.694Z,73.93
2022-12-18T06:34:49.882Z,73.93
2022-12-18T06:37:52.999Z,73.89
2022-12-18T06:40:56.076Z,73.87
2022-12-18T06:44:00.083Z,73.84
2022-12-18T06:47:03.878Z,73.80
2022-12-18T06:50:12.617Z,73.80
2022-12-18T06:53:18.832Z,73.75
2022-12-18T06:56:22.157Z,73.74
2022-12-18T06:59:25.441Z,73.74
2022-12-18T07:02:29.543Z,73.74
2022-12-18T07:05:32.737Z,73.74
2022-12-18T07:08:35.868Z,73.69
2022-12-18T07:11:39.163Z,73.67
2022-12-18T07:14:42.332Z,73.69
2022-12-18T07:17:45.397Z,73.66
2022-12-18T07:20:48.461Z,73.60
2022-12-18T07:23:52.179Z,73.58
2022-12-18T07:26:55.519Z,73.55
2022-12-18T07:29:58.563Z,73.53
2022-12-18T07:33:01.690Z,73.44
2022-12-18T07:36:06.978Z,73.35
2022-12-18T07:39:12.524Z,73.31
2022-12-18T07:42:33.917Z,73.19
2022-12-18T07:45:37.358Z,73.12
2022-12-18T07:48:49.307Z,73.04
2022-12-18T07:51:58.527Z,72.99
2022-12-18T07:55:01.542Z,73.00
2022-12-18T07:58:05.378Z,72.91
2022-12-18T08:01:10.968Z,72.82
2022-12-18T08:04:14.673Z,72.65
2022-12-18T08:07:17.921Z,72.57
2022-12-18T08:10:21.845Z,72.51
2022-12-18T08:13:26.055Z,72.46
2022-12-18T08:16:29.540Z,72.30
2022-12-18T08:19:32.622Z,72.07
2022-12-18T08:22:38.951Z,71.83
2022-12-18T08:25:41.978Z,71.60
2022-12-18T08:28:45.547Z,71.42
2022-12-18T08:31:48.781Z,71.20
2022-12-18T08:34:51.939Z,71.00
2022-12-18T08:37:55.195Z,70.76
2022-12-18T08:41:07.069Z,70.63
2022-12-18T08:44:28.767Z,70.49
2022-12-18T08:47:32.181Z,70.44
2022-12-18T08:50:35.313Z,70.35
2022-12-18T08:53:39.075Z,70.22
2022-12-18T08:56:42.365Z,70.12
2022-12-18T08:59:45.517Z,70.03
2022-12-18T09:02:51.532Z,69.93
2022-12-18T09:05:54.816Z,69.91
2022-12-18T09:08:58.594Z,70.09
2022-12-18T09:12:04.757Z,70.32
2022-12-18T09:15:08.087Z,70.44
2022-12-18T09:18:11.178Z,70.47
2022-12-18T09:21:21.772Z,70.46
2022-12-18T09:24:24.881Z,70.44
2022-12-18T09:27:28.279Z,70.32
2022-12-18T09:30:31.835Z,70.24
2022-12-18T09:33:37.189Z,70.07
2022-12-18T09:36:40.730Z,69.96
2022-12-18T09:39:43.816Z,69.90
2022-12-18T09:42:52.533Z,69.78
2022-12-18T09:46:12.623Z,69.61
2022-12-18T09:49:19.849Z,69.47
2022-12-18T09:52:26.889Z,69.24
2022-12-18T09:55:37.525Z,69.19
2022-12-18T09:58:51.193Z,69.17
2022-12-18T10:01:54.431Z,69.08
2022-12-18T10:05:04.053Z,68.95
2022-12-18T10:08:17.449Z,68.90
2022-12-18T10:11:49.053Z,68.76
2022-12-18T10:15:08.004Z,68.73
2022-12-18T10:18:25.503Z,68.56
2022-12-18T10:21:38.689Z,68.52
2022-12-18T10:24:54.247Z,68.46
2022-12-18T10:28:01.534Z,68.47
2022-12-18T10:31:15.507Z,68.45
2022-12-18T10:34:18.956Z,68.46
2022-12-18T10:37:25.190Z,68.43
2022-12-18T10:40:28.307Z,68.43
2022-12-18T10:43:32.387Z,68.36
2022-12-18T10:46:35.788Z,68.28
2022-12-18T10:49:49.483Z,68.29
2022-12-18T10:52:59.214Z,68.25
2022-12-18T10:56:05.144Z,68.29
2022-12-18T10:59:11.710Z,68.22
2022-12-18T11:02:38.501Z,67.96
2022-12-18T11:05:41.794Z,67.74
2022-12-18T11:08:58.484Z,67.73
2022-12-18T11:12:04.905Z,67.52
2022-12-18T11:15:28.987Z,67.41
2022-12-18T11:18:36.991Z,67.31
2022-12-18T11:21:42.593Z,67.35
2022-12-18T11:25:29.645Z,67.49
2022-12-18T11:28:42.624Z,67.55
2022-12-18T11:31:46.162Z,67.52
2022-12-18T11:34:59.153Z,67.45
2022-12-18T11:38:08.344Z,67.50
2022-12-18T11:41:45.591Z,67.69
2022-12-18T11:44:55.665Z,67.55
2022-12-18T11:48:07.858Z,67.50
2022-12-18T11:51:19.843Z,67.48
2022-12-18T11:54:22.955Z,67.63
2022-12-18T11:57:50.001Z,67.65
2022-12-18T12:01:04.582Z,67.46
2022-12-18T12:04:32.192Z,67.34
2022-12-18T12:08:10.768Z,67.20
2022-12-18T12:11:13.716Z,67.19
2022-12-18T12:14:44.085Z,67.22
2022-12-18T12:18:22.382Z,67.23
2022-12-18T12:21:25.360Z,67.38
2022-12-18T12:24:39.334Z,67.48
2022-12-18T12:28:11.790Z,67.54
2022-12-18T12:31:43.183Z,67.60
2022-12-18T12:35:09.872Z,67.68
2022-12-18T12:38:26.379Z,67.73
2022-12-18T12:41:52.888Z,67.86
2022-12-18T12:44:59.595Z,67.77
2022-12-18T12:48:05.211Z,67.65
2022-12-18T12:51:15.011Z,67.56
2022-12-18T12:54:25.823Z,67.43
2022-12-18T12:57:38.016Z,67.45
2022-12-18T13:00:52.747Z,67.46
2022-12-18T13:04:12.875Z,67.41
2022-12-18T13:07:33.542Z,67.43
2022-12-18T13:10:42.086Z,67.37
2022-12-18T13:13:56.784Z,67.30
2022-12-18T13:17:16.413Z,67.30
2022-12-18T13:20:19.570Z,67.21
2022-12-18T13:23:34.201Z,67.08
2022-12-18T13:26:37.323Z,66.93
2022-12-18T13:29:45.875Z,67.00
2022-12-18T13:32:48.986Z,66.87
2022-12-18T13:35:53.870Z,66.88
2022-12-18T13:39:18.527Z,66.65
2022-12-18T13:42:58.897Z,66.51
2022-12-18T13:46:21.502Z,66.33
2022-12-18T13:49:24.587Z,66.39
2022-12-18T13:52:37.460Z,66.56
2022-12-18T13:55:53.677Z,66.88
2022-12-18T13:59:34.213Z,67.03
2022-12-18T14:02:37.501Z,67.13
2022-12-18T14:05:42.899Z,67.24
2022-12-18T14:08:48.140Z,67.43
2022-12-18T14:11:52.948Z,67.54
2022-12-18T14:14:56.884Z,67.63
2022-12-18T14:18:20.035Z,67.73
2022-12-18T14:21:27.264Z,67.79
2022-12-18T14:24:31.407Z,67.87
2022-12-18T14:27:39.128Z,67.85
2022-12-18T14:30:45.164Z,67.91
2022-12-18T14:33:48.546Z,67.89
2022-12-18T14:36:56.329Z,67.84
2022-12-18T14:40:13.993Z,67.69
2022-12-18T14:43:22.189Z,67.38
2022-12-18T14:46:34.320Z,67.20
2022-12-18T14:49:38.242Z,67.16
2022-12-18T14:52:42.040Z,67.40
2022-12-18T14:55:48.714Z,67.21
2022-12-18T14:58:54.415Z,67.04
2022-12-18T15:02:09.677Z,66.90
2022-12-18T15:05:14.590Z,66.71
2022-12-18T15:08:35.743Z,66.53
2022-12-18T15:11:41.858Z,66.15
2022-12-18T15:14:45.007Z,65.96
2022-12-18T15:17:48.197Z,65.82
2022-12-18T15:20:56.278Z,65.78
2022-12-18T15:23:59.631Z,65.75
2022-12-18T15:27:02.821Z,65.75
2022-12-18T15:30:09.009Z,65.69
2022-12-18T15:33:43.422Z,65.58
2022-12-18T15:36:47.045Z,65.41
2022-12-18T15:39:50.155Z,65.26
2022-12-18T15:43:17.249Z,65.29
2022-12-18T15:46:23.738Z,65.26
2022-12-18T15:49:27.064Z,65.11
2022-12-18T15:52:30.241Z,65.10
2022-12-18T15:55:54.232Z,65.09
2022-12-18T15:59:00.261Z,65.02
2022-12-18T16:02:05.777Z,65.07
2022-12-18T16:05:16.282Z,64.97
2022-12-18T16:08:27.779Z,65.08
2022-12-18T16:11:39.569Z,65.08
2022-12-18T16:14:43.823Z,65.08
2022-12-18T16:17:48.128Z,65.24
2022-12-18T16:20:51.968Z,65.29
2022-12-18T16:23:55.161Z,65.12
2022-12-18T16:27:00.432Z,65.99
2022-12-18T16:30:04.504Z,66.69
2022-12-18T16:33:08.666Z,66.69
2022-12-18T16:36:11.860Z,66.49
2022-12-18T16:39:15.070Z,66.21
2022-12-18T16:42:20.800Z,66.08
2022-12-18T16:45:24.084Z,66.02
2022-12-18T16:48:30.123Z,65.82
2022-12-18T16:51:33.395Z,65.65
2022-12-18T16:54:36.938Z,65.40
2022-12-18T16:57:40.114Z,65.10
2022-12-18T17:00:43.195Z,64.78
2022-12-18T17:03:53.109Z,64.61
2022-12-18T17:06:56.198Z,64.50
2022-12-18T17:09:59.285Z,64.46
2022-12-18T17:13:02.464Z,64.40
2022-12-18T17:16:07.326Z,64.18
2022-12-18T17:19:16.795Z,64.05
2022-12-18T17:22:23.420Z,63.99
2022-12-18T17:25:26.757Z,63.92
2022-12-18T17:28:30.828Z,63.91
2022-12-18T17:31:34.841Z,63.84
2022-12-18T17:34:38.927Z,63.64
2022-12-18T17:37:43.484Z,63.54
2022-12-18T17:40:46.817Z,63.47
2022-12-18T17:43:55.396Z,63.63
2022-12-18T17:46:58.764Z,64.57
2022-12-18T17:50:01.941Z,64.34
2022-12-18T17:53:05.086Z,63.94
2022-12-18T17:56:13.824Z,63.61
2022-12-18T17:59:16.880Z,63.36
2022-12-18T18:02:20.256Z,63.28
2022-12-18T18:05:31.092Z,63.15
2022-12-18T18:08:36.081Z,63.03
2022-12-18T18:11:57.498Z,62.94
2022-12-18T18:15:06.179Z,62.92
2022-12-18T18:18:09.918Z,63.02
2022-12-18T18:21:50.354Z,63.19
2022-12-18T18:25:15.136Z,63.34
2022-12-18T18:28:18.527Z,63.31
2022-12-18T18:31:41.748Z,63.20
2022-12-18T18:34:45.138Z,63.18
2022-12-18T18:37:49.094Z,63.07
2022-12-18T18:41:02.870Z,63.06
2022-12-18T18:44:09.923Z,62.95
2022-12-18T18:47:14.234Z,63.09
2022-12-18T18:50:17.460Z,63.10
2022-12-18T18:53:20.553Z,63.02
2022-12-18T18:56:56.132Z,62.96
2022-12-18T18:59:58.362Z,62.90
2022-12-18T19:03:14.198Z,62.78
2022-12-18T19:06:27.943Z,62.69
2022-12-18T19:09:55.543Z,62.73
2022-12-18T19:13:23.236Z,62.81
2022-12-18T19:16:29.655Z,62.73
2022-12-18T19:19:33.073Z,63.23
2022-12-18T19:22:36.343Z,63.95
2022-12-18T19:30:17.057Z,64.46
2022-12-18T19:37:08.076Z,63.53
2022-12-18T19:40:19.371Z,63.34
2022-12-18T19:43:38.588Z,63.23
2022-12-18T19:53:19.741Z,64.01
2022-12-18T19:56:31.275Z,64.47
2022-12-18T19:59:42.982Z,64.69
2022-12-18T20:02:46.469Z,64.95
2022-12-18T20:05:50.522Z,65.38
2022-12-18T20:09:01.355Z,65.50
2022-12-18T20:12:08.892Z,65.35
2022-12-18T20:15:11.262Z,65.29
2022-12-18T20:18:13.174Z,65.38
2022-12-18T20:21:15.740Z,65.40
2022-12-18T20:24:28.424Z,65.42
2022-12-18T20:27:30.587Z,65.37
2022-12-18T20:30:33.552Z,65.38
2022-12-18T20:33:40.133Z,65.49
2022-12-18T20:36:45.919Z,65.44
2022-12-18T20:40:15.514Z,65.45
2022-12-18T20:47:40.172Z,65.62
2022-12-18T20:57:02.847Z,65.26
2022-12-18T21:00:07.509Z,64.80
2022-12-18T21:08:15.504Z,64.69
2022-12-18T21:26:22.936Z,63.42
2022-12-18T21:29:26.276Z,63.04
2022-12-18T21:32:29.389Z,62.62
2022-12-18T21:35:37.271Z,62.30
2022-12-18T21:38:39.022Z,62.01
2022-12-18T21:41:59.432Z,62.14
2022-12-18T21:45:01.575Z,61.92
2022-12-18T21:48:03.926Z,62.08
2022-12-18T21:51:05.774Z,62.08
2022-12-18T21:54:08.537Z,62.04
2022-12-18T21:57:12.727Z,62.09
2022-12-18T22:00:18.438Z,62.23
2022-12-18T22:03:21.824Z,62.33
2022-12-18T22:06:23.648Z,62.30
2022-12-18T22:09:25.452Z,62.22
2022-12-18T22:12:42.886Z,62.16
2022-12-18T22:15:46.363Z,62.20
2022-12-18T22:18:48.115Z,62.25
2022-12-18T22:21:50.353Z,62.14
2022-12-18T22:24:52.061Z,62.18
2022-12-18T22:28:12.367Z,62.12
2022-12-18T22:31:14.278Z,62.26
2022-12-18T22:34:19.370Z,62.18
2022-12-18T22:37:23.637Z,62.39
2022-12-18T22:40:26.511Z,62.50
2022-12-18T22:43:28.412Z,62.49
2022-12-18T22:46:32.590Z,62.49
2022-12-18T22:49:35.381Z,62.81
2022-12-18T22:52:37.773Z,63.10
2022-12-18T22:55:39.471Z,63.27
2022-12-18T22:58:41.187Z,63.37
2022-12-18T23:01:43.426Z,63.66
2022-12-18T23:04:48.224Z,64.09
2022-12-18T23:07:49.858Z,64.59
2022-12-18T23:10:52.753Z,64.85
2022-12-18T23:13:55.167Z,64.95
2022-12-18T23:16:59.281Z,65.17
2022-12-18T23:20:01.164Z,65.21
2022-12-18T23:23:02.812Z,65.51
2022-12-18T23:26:13.475Z,65.85
2022-12-18T23:29:15.195Z,65.85
2022-12-18T23:32:16.934Z,65.81
2022-12-18T23:35:18.749Z,65.86
2022-12-18T23:38:20.433Z,65.94
2022-12-18T23:41:24.913Z,66.15
2022-12-18T23:44:27.092Z,66.25
2022-12-18T23:47:29.670Z,66.20
2022-12-18T23:50:34.674Z,65.92
2022-12-18T23:53:36.756Z,66.12
2022-12-18T23:56:38.459Z,66.38
2022-12-18T23:59:40.196Z,66.70
